Terminal Aerodrome Forecast
Issued by NWS Tampa Bay Area, FL

Home | Current Version | Previous Version | Text Only | Print | Product List | Glossary On
Versions: 1 2 3 4 5 6 7 8 9 10 11 12 13 14 15 16 17
000
FTUS42 KTBW 271124
TAFSRQ
TAF
KSRQ 271124Z 2712/2812 18010KT P6SM SCT020 BKN120
     FM271600 22015G25KT P6SM SHRA VCTS BKN020CB
     FM272100 28017G25KT P6SM BKN035
     FM280400 31011G21KT P6SM SCT035 BKN250
     FM281000 35009KT P6SM SCT035=

USA.gov is the U.S. government's official web portal to all federal, state and local government web resources and services.